sensor_id;sensor_type;location;lat;lon;timestamp;pressure;altitude;pressure_sealevel;temperature;humidity
74613;BME280;63119;51.788;8.824;2022-11-23T00:00:24;98343.63;;;7.48;79.39
74613;BME280;63119;51.788;8.824;2022-11-23T00:02:57;98348.44;;;7.43;79.75
74613;BME280;63119;51.788;8.824;2022-11-23T00:05:23;98351.75;;;7.56;79.61
74613;BME280;63119;51.788;8.824;2022-11-23T00:07:49;98355.56;;;7.52;79.41
74613;BME280;63119;51.788;8.824;2022-11-23T00:10:15;98361.63;;;7.64;79.29
74613;BME280;63119;51.788;8.824;2022-11-23T00:12:40;98355.78;;;7.60;79.07
74613;BME280;63119;51.788;8.824;2022-11-23T00:15:06;98354.38;;;7.56;79.61
74613;BME280;63119;51.788;8.824;2022-11-23T00:17:32;98357.31;;;7.63;79.01
74613;BME280;63119;51.788;8.824;2022-11-23T00:19:57;98361.03;;;7.60;79.57
74613;BME280;63119;51.788;8.824;2022-11-23T00:22:22;98359.00;;;7.64;79.18
74613;BME280;63119;51.788;8.824;2022-11-23T00:24:48;98359.13;;;7.62;79.14
74613;BME280;63119;51.788;8.824;2022-11-23T00:27:13;98361.28;;;7.68;79.13
74613;BME280;63119;51.788;8.824;2022-11-23T00:29:38;98362.22;;;7.67;79.24
74613;BME280;63119;51.788;8.824;2022-11-23T00:32:04;98356.94;;;7.67;79.25
74613;BME280;63119;51.788;8.824;2022-11-23T00:34:29;98358.16;;;7.63;80.31
74613;BME280;63119;51.788;8.824;2022-11-23T00:36:54;98361.53;;;7.65;79.81
74613;BME280;63119;51.788;8.824;2022-11-23T00:39:19;98366.78;;;7.65;80.08
74613;BME280;63119;51.788;8.824;2022-11-23T00:41:45;98361.78;;;7.62;80.75
74613;BME280;63119;51.788;8.824;2022-11-23T00:44:10;98357.72;;;7.58;80.85
74613;BME280;63119;51.788;8.824;2022-11-23T00:46:35;98364.41;;;7.62;80.33
74613;BME280;63119;51.788;8.824;2022-11-23T00:49:00;98361.53;;;7.54;80.88
74613;BME280;63119;51.788;8.824;2022-11-23T00:51:34;98359.38;;;7.59;80.93
74613;BME280;63119;51.788;8.824;2022-11-23T00:54:01;98363.47;;;7.52;80.46
74613;BME280;63119;51.788;8.824;2022-11-23T00:56:28;98357.97;;;7.55;80.45
74613;BME280;63119;51.788;8.824;2022-11-23T00:58:55;98358.66;;;7.57;80.93
74613;BME280;63119;51.788;8.824;2022-11-23T01:01:23;98366.53;;;7.68;80.50
74613;BME280;63119;51.788;8.824;2022-11-23T01:03:54;98361.28;;;7.57;80.18
74613;BME280;63119;51.788;8.824;2022-11-23T01:06:24;98365.34;;;7.61;80.56
74613;BME280;63119;51.788;8.824;2022-11-23T01:08:58;98364.06;;;7.56;80.72
74613;BME280;63119;51.788;8.824;2022-11-23T01:11:26;98366.34;;;7.49;80.99
74613;BME280;63119;51.788;8.824;2022-11-23T01:13:52;98359.50;;;7.58;80.83
74613;BME280;63119;51.788;8.824;2022-11-23T01:16:21;98364.66;;;7.48;81.58
74613;BME280;63119;51.788;8.824;2022-11-23T01:18:50;98360.84;;;7.52;81.46
74613;BME280;63119;51.788;8.824;2022-11-23T01:21:15;98357.63;;;7.49;81.70
74613;BME280;63119;51.788;8.824;2022-11-23T01:23:40;98362.78;;;7.50;81.65
74613;BME280;63119;51.788;8.824;2022-11-23T01:26:07;98360.84;;;7.52;81.74
74613;BME280;63119;51.788;8.824;2022-11-23T01:28:34;98360.25;;;7.49;81.69
74613;BME280;63119;51.788;8.824;2022-11-23T01:31:07;98358.09;;;7.43;82.39
74613;BME280;63119;51.788;8.824;2022-11-23T01:33:33;98361.34;;;7.46;82.49
74613;BME280;63119;51.788;8.824;2022-11-23T01:35:59;98360.25;;;7.49;81.84
74613;BME280;63119;51.788;8.824;2022-11-23T01:38:24;98366.69;;;7.56;81.89
74613;BME280;63119;51.788;8.824;2022-11-23T01:40:50;98371.22;;;7.54;81.64
74613;BME280;63119;51.788;8.824;2022-11-23T01:43:16;98376.50;;;7.54;81.41
74613;BME280;63119;51.788;8.824;2022-11-23T01:48:19;98374.34;;;7.59;81.47
74613;BME280;63119;51.788;8.824;2022-11-23T01:50:49;98373.25;;;7.61;81.19
74613;BME280;63119;51.788;8.824;2022-11-23T01:53:16;98378.63;;;7.60;81.49
74613;BME280;63119;51.788;8.824;2022-11-23T01:55:43;98374.78;;;7.64;81.22
74613;BME280;63119;51.788;8.824;2022-11-23T01:58:09;98373.00;;;7.64;81.13
74613;BME280;63119;51.788;8.824;2022-11-23T02:00:36;98381.59;;;7.66;80.99
74613;BME280;63119;51.788;8.824;2022-11-23T02:03:03;98378.84;;;7.68;81.11
74613;BME280;63119;51.788;8.824;2022-11-23T02:05:34;98375.13;;;7.70;80.76
74613;BME280;63119;51.788;8.824;2022-11-23T02:08:00;98380.16;;;7.74;80.68
74613;BME280;63119;51.788;8.824;2022-11-23T02:10:28;98382.41;;;7.78;80.68
74613;BME280;63119;51.788;8.824;2022-11-23T02:12:54;98380.16;;;7.74;80.69
74613;BME280;63119;51.788;8.824;2022-11-23T02:15:19;98381.81;;;7.75;79.97
74613;BME280;63119;51.788;8.824;2022-11-23T02:17:45;98387.44;;;7.81;80.38
74613;BME280;63119;51.788;8.824;2022-11-23T02:20:16;98380.16;;;7.74;80.59
74613;BME280;63119;51.788;8.824;2022-11-23T02:28:15;98381.91;;;7.84;80.29
74613;BME280;63119;51.788;8.824;2022-11-23T02:30:44;98382.41;;;7.78;80.01
74613;BME280;63119;51.788;8.824;2022-11-23T02:33:12;98386.59;;;7.81;80.14
74613;BME280;63119;51.788;8.824;2022-11-23T02:35:48;98389.81;;;7.84;80.23
74613;BME280;63119;51.788;8.824;2022-11-23T02:38:14;98393.25;;;7.85;79.52
74613;BME280;63119;51.788;8.824;2022-11-23T02:40:40;98383.72;;;7.84;79.77
74613;BME280;63119;51.788;8.824;2022-11-23T02:43:06;98375.56;;;7.87;79.99
74613;BME280;63119;51.788;8.824;2022-11-23T02:45:40;98385.16;;;7.77;80.06
74613;BME280;63119;51.788;8.824;2022-11-23T02:48:08;98392.09;;;7.78;80.52
74613;BME280;63119;51.788;8.824;2022-11-23T02:50:33;98390.69;;;7.74;80.31
74613;BME280;63119;51.788;8.824;2022-11-23T02:52:58;98397.31;;;7.89;80.24
74613;BME280;63119;51.788;8.824;2022-11-23T02:55:24;98385.06;;;7.78;80.38
74613;BME280;63119;51.788;8.824;2022-11-23T02:57:49;98387.09;;;7.75;80.94
74613;BME280;63119;51.788;8.824;2022-11-23T03:00:15;98398.56;;;7.74;81.27
74613;BME280;63119;51.788;8.824;2022-11-23T03:02:40;98386.59;;;7.69;81.24
74613;BME280;63119;51.788;8.824;2022-11-23T03:05:06;98393.66;;;7.69;81.32
74613;BME280;63119;51.788;8.824;2022-11-23T03:07:32;98383.03;;;7.70;80.98
74613;BME280;63119;51.788;8.824;2022-11-23T03:09:57;98383.63;;;7.74;80.77
74613;BME280;63119;51.788;8.824;2022-11-23T03:12:22;98391.75;;;7.71;81.37
74613;BME280;63119;51.788;8.824;2022-11-23T03:14:47;98390.63;;;7.85;80.60
74613;BME280;63119;51.788;8.824;2022-11-23T03:17:13;98380.97;;;7.74;80.77
74613;BME280;63119;51.788;8.824;2022-11-23T03:19:38;98384.91;;;7.80;80.50
74613;BME280;63119;51.788;8.824;2022-11-23T03:22:03;98391.38;;;7.76;80.78
74613;BME280;63119;51.788;8.824;2022-11-23T03:24:29;98392.59;;;7.72;80.58
74613;BME280;63119;51.788;8.824;2022-11-23T03:26:54;98392.84;;;7.68;81.25
74613;BME280;63119;51.788;8.824;2022-11-23T03:29:20;98397.13;;;7.69;81.54
74613;BME280;63119;51.788;8.824;2022-11-23T03:31:46;98392.84;;;7.68;81.51
74613;BME280;63119;51.788;8.824;2022-11-23T03:34:11;98401.00;;;7.65;81.45
74613;BME280;63119;51.788;8.824;2022-11-23T03:36:37;98403.25;;;7.70;81.46
74613;BME280;63119;51.788;8.824;2022-11-23T03:39:02;98400.53;;;7.60;81.52
74613;BME280;63119;51.788;8.824;2022-11-23T03:41:27;98405.53;;;7.63;81.32
74613;BME280;63119;51.788;8.824;2022-11-23T03:43:53;98401.94;;;7.64;81.49
74613;BME280;63119;51.788;8.824;2022-11-23T03:46:18;98405.44;;;7.65;82.49
74613;BME280;63119;51.788;8.824;2022-11-23T03:48:43;98408.56;;;7.59;81.99
74613;BME280;63119;51.788;8.824;2022-11-23T03:51:08;98399.06;;;7.67;82.03
74613;BME280;63119;51.788;8.824;2022-11-23T03:53:34;98410.47;;;7.57;81.94
74613;BME280;63119;51.788;8.824;2022-11-23T03:55:59;98412.13;;;7.58;81.96
74613;BME280;63119;51.788;8.824;2022-11-23T03:58:24;98409.41;;;7.59;81.93
74613;BME280;63119;51.788;8.824;2022-11-23T04:00:49;98405.19;;;7.68;81.50
74613;BME280;63119;51.788;8.824;2022-11-23T04:03:15;98410.81;;;7.63;81.53
74613;BME280;63119;51.788;8.824;2022-11-23T04:05:40;98404.78;;;7.72;80.79
74613;BME280;63119;51.788;8.824;2022-11-23T04:08:05;98410.44;;;7.68;80.97
74613;BME280;63119;51.788;8.824;2022-11-23T04:10:31;98415.72;;;7.68;81.68
74613;BME280;63119;51.788;8.824;2022-11-23T04:12:56;98411.28;;;7.68;80.83
74613;BME280;63119;51.788;8.824;2022-11-23T04:15:21;98406.72;;;7.70;81.18
74613;BME280;63119;51.788;8.824;2022-11-23T04:17:46;98404.44;;;7.66;81.20
74613;BME280;63119;51.788;8.824;2022-11-23T04:20:12;98411.06;;;7.60;81.18
74613;BME280;63119;51.788;8.824;2022-11-23T04:22:37;98412.97;;;7.58;81.52
74613;BME280;63119;51.788;8.824;2022-11-23T04:25:03;98403.41;;;7.57;81.62
74613;BME280;63119;51.788;8.824;2022-11-23T04:27:28;98400.06;;;7.55;81.51
74613;BME280;63119;51.788;8.824;2022-11-23T04:29:54;98409.91;;;7.53;81.72
74613;BME280;63119;51.788;8.824;2022-11-23T04:32:19;98414.66;;;7.59;81.53
74613;BME280;63119;51.788;8.824;2022-11-23T04:34:44;98408.56;;;7.59;81.53
74613;BME280;63119;51.788;8.824;2022-11-23T04:37:10;98413.59;;;7.51;82.21
74613;BME280;63119;51.788;8.824;2022-11-23T04:39:35;98417.31;;;7.48;82.62
74613;BME280;63119;51.788;8.824;2022-11-23T04:42:00;98418.63;;;7.43;82.48
74613;BME280;63119;51.788;8.824;2022-11-23T04:44:25;98424.84;;;7.42;82.46
74613;BME280;63119;51.788;8.824;2022-11-23T04:46:51;98421.97;;;7.45;82.45
74613;BME280;63119;51.788;8.824;2022-11-23T04:49:16;98420.91;;;7.47;82.12
74613;BME280;63119;51.788;8.824;2022-11-23T04:51:41;98415.41;;;7.50;82.15
74613;BME280;63119;51.788;8.824;2022-11-23T04:54:07;98418.84;;;7.51;82.11
74613;BME280;63119;51.788;8.824;2022-11-23T04:56:32;98418.38;;;7.46;82.36
74613;BME280;63119;51.788;8.824;2022-11-23T04:58:57;98415.16;;;7.42;82.93
74613;BME280;63119;51.788;8.824;2022-11-23T05:01:23;98421.41;;;7.41;82.34
74613;BME280;63119;51.788;8.824;2022-11-23T05:03:48;98419.22;;;7.46;82.33
74613;BME280;63119;51.788;8.824;2022-11-23T05:06:13;98426.41;;;7.44;82.31
74613;BME280;63119;51.788;8.824;2022-11-23T05:08:38;98427.47;;;7.42;82.29
74613;BME280;63119;51.788;8.824;2022-11-23T05:11:04;98432.19;;;7.38;82.63
74613;BME280;63119;51.788;8.824;2022-11-23T05:13:29;98434.06;;;7.36;82.91
74613;BME280;63119;51.788;8.824;2022-11-23T05:15:54;98429.06;;;7.33;82.76
74613;BME280;63119;51.788;8.824;2022-11-23T05:18:20;98425.22;;;7.37;82.62
74613;BME280;63119;51.788;8.824;2022-11-23T05:20:45;98430.25;;;7.40;83.07
74613;BME280;63119;51.788;8.824;2022-11-23T05:23:11;98427.97;;;7.36;83.44
74613;BME280;63119;51.788;8.824;2022-11-23T05:25:36;98432.19;;;7.38;82.71
74613;BME280;63119;51.788;8.824;2022-11-23T05:28:02;98430.59;;;7.36;82.45
74613;BME280;63119;51.788;8.824;2022-11-23T05:30:28;98429.78;;;7.35;83.29
74613;BME280;63119;51.788;8.824;2022-11-23T05:32:53;98428.56;;;7.39;82.53
74613;BME280;63119;51.788;8.824;2022-11-23T05:35:18;98424.13;;;7.40;82.88
74613;BME280;63119;51.788;8.824;2022-11-23T05:37:44;98427.38;;;7.43;82.63
74613;BME280;63119;51.788;8.824;2022-11-23T05:40:10;98434.06;;;7.47;82.14
74613;BME280;63119;51.788;8.824;2022-11-23T05:42:35;98435.47;;;7.51;82.44
74613;BME280;63119;51.788;8.824;2022-11-23T05:45:01;98432.97;;;7.50;82.40
74613;BME280;63119;51.788;8.824;2022-11-23T05:47:26;98437.72;;;7.67;81.88
74613;BME280;63119;51.788;8.824;2022-11-23T05:49:51;98434.28;;;7.55;82.36
74613;BME280;63119;51.788;8.824;2022-11-23T05:52:17;98438.34;;;7.48;82.21
74613;BME280;63119;51.788;8.824;2022-11-23T05:54:42;98443.13;;;7.54;81.89
74613;BME280;63119;51.788;8.824;2022-11-23T05:57:07;98445.53;;;7.46;82.50
74613;BME280;63119;51.788;8.824;2022-11-23T05:59:33;98452.56;;;7.57;81.82
74613;BME280;63119;51.788;8.824;2022-11-23T06:01:58;98442.03;;;7.57;82.37
74613;BME280;63119;51.788;8.824;2022-11-23T06:04:23;98448.28;;;7.56;82.37
74613;BME280;63119;51.788;8.824;2022-11-23T06:06:49;98439.78;;;7.52;82.29
74613;BME280;63119;51.788;8.824;2022-11-23T06:09:14;98447.78;;;7.51;82.76
74613;BME280;63119;51.788;8.824;2022-11-23T06:11:39;98445.66;;;7.56;81.98
74613;BME280;63119;51.788;8.824;2022-11-23T06:14:05;98449.22;;;7.55;82.45
74613;BME280;63119;51.788;8.824;2022-11-23T06:16:30;98445.53;;;7.46;82.83
74613;BME280;63119;51.788;8.824;2022-11-23T06:18:56;98448.63;;;7.51;82.76
74613;BME280;63119;51.788;8.824;2022-11-23T06:21:21;98439.31;;;7.58;82.94
74613;BME280;63119;51.788;8.824;2022-11-23T06:23:46;98447.47;;;7.44;83.38
74613;BME280;63119;51.788;8.824;2022-11-23T06:26:12;98449.38;;;7.42;83.49
74613;BME280;63119;51.788;8.824;2022-11-23T06:28:37;98445.34;;;7.38;83.76
74613;BME280;63119;51.788;8.824;2022-11-23T06:31:04;98443.88;;;7.45;83.61
74613;BME280;63119;51.788;8.824;2022-11-23T06:33:30;98456.56;;;7.40;83.73
74613;BME280;63119;51.788;8.824;2022-11-23T06:35:58;98461.56;;;7.43;83.70
74613;BME280;63119;51.788;8.824;2022-11-23T06:38:24;98463.25;;;7.44;83.42
74613;BME280;63119;51.788;8.824;2022-11-23T06:40:50;98463.81;;;7.48;83.72
74613;BME280;63119;51.788;8.824;2022-11-23T06:43:15;98463.81;;;7.48;83.08
74613;BME280;63119;51.788;8.824;2022-11-23T06:45:40;98466.84;;;7.43;83.49
74613;BME280;63119;51.788;8.824;2022-11-23T06:48:06;98462.78;;;7.39;83.57
74613;BME280;63119;51.788;8.824;2022-11-23T06:50:31;98462.53;;;7.42;83.94
74613;BME280;63119;51.788;8.824;2022-11-23T06:52:57;98463.81;;;7.48;83.26
74613;BME280;63119;51.788;8.824;2022-11-23T06:55:23;98472.94;;;7.44;83.25
74613;BME280;63119;51.788;8.824;2022-11-23T06:57:48;98470.53;;;7.52;83.07
74613;BME280;63119;51.788;8.824;2022-11-23T07:00:14;98474.00;;;7.52;82.94
74613;BME280;63119;51.788;8.824;2022-11-23T07:02:40;98470.28;;;7.55;82.65
74613;BME280;63119;51.788;8.824;2022-11-23T07:05:05;98471.38;;;7.52;83.02
74613;BME280;63119;51.788;8.824;2022-11-23T07:07:31;98473.88;;;7.54;82.64
74613;BME280;63119;51.788;8.824;2022-11-23T07:09:56;98479.13;;;7.54;83.36
74613;BME280;63119;51.788;8.824;2022-11-23T07:12:22;98479.03;;;7.55;82.49
74613;BME280;63119;51.788;8.824;2022-11-23T07:14:47;98476.84;;;7.60;82.43
74613;BME280;63119;51.788;8.824;2022-11-23T07:17:12;98482.84;;;7.62;82.34
74613;BME280;63119;51.788;8.824;2022-11-23T07:19:38;98479.25;;;7.63;82.10
74613;BME280;63119;51.788;8.824;2022-11-23T07:22:03;98488.81;;;7.64;82.03
74613;BME280;63119;51.788;8.824;2022-11-23T08:02:47;98520.81;;;8.46;77.93
74613;BME280;63119;51.788;8.824;2022-11-23T08:05:13;98513.94;;;8.54;78.27
74613;BME280;63119;51.788;8.824;2022-11-23T08:07:39;98522.31;;;8.28;78.87
74613;BME280;63119;51.788;8.824;2022-11-23T08:10:04;98516.44;;;8.24;78.78
74613;BME280;63119;51.788;8.824;2022-11-23T08:12:30;98521.25;;;8.19;79.71
74613;BME280;63119;51.788;8.824;2022-11-23T08:14:55;98528.06;;;8.21;79.03
74613;BME280;63119;51.788;8.824;2022-11-23T08:17:20;98523.38;;;8.25;79.01
74613;BME280;63119;51.788;8.824;2022-11-23T08:19:46;98526.03;;;8.25;78.91
74613;BME280;63119;51.788;8.824;2022-11-23T08:22:11;98524.09;;;8.38;78.03
74613;BME280;63119;51.788;8.824;2022-11-23T08:24:36;98530.25;;;8.48;77.92
74613;BME280;63119;51.788;8.824;2022-11-23T08:27:02;98528.09;;;8.53;77.81
74613;BME280;63119;51.788;8.824;2022-11-23T08:29:28;98527.63;;;8.48;77.54
74613;BME280;63119;51.788;8.824;2022-11-23T08:31:53;98528.34;;;8.50;77.71
74613;BME280;63119;51.788;8.824;2022-11-23T08:34:18;98530.84;;;8.52;77.11
74613;BME280;63119;51.788;8.824;2022-11-23T08:36:44;98538.16;;;8.48;77.71
74613;BME280;63119;51.788;8.824;2022-11-23T08:39:10;98536.50;;;8.47;77.74
74613;BME280;63119;51.788;8.824;2022-11-23T10:05:32;98566.38;;;9.30;74.85
74613;BME280;63119;51.788;8.824;2022-11-23T10:08:21;98562.56;;;9.44;74.02
74613;BME280;63119;51.788;8.824;2022-11-23T10:13:38;98566.25;;;9.62;72.73
74613;BME280;63119;51.788;8.824;2022-11-23T10:16:25;98569.31;;;9.67;72.41
74613;BME280;63119;51.788;8.824;2022-11-23T10:19:23;98563.56;;;9.83;71.75
74613;BME280;63119;51.788;8.824;2022-11-23T10:22:20;98557.31;;;10.24;70.70
74613;BME280;63119;51.788;8.824;2022-11-23T10:24:45;98558.25;;;10.23;70.15
74613;BME280;63119;51.788;8.824;2022-11-23T10:27:20;98555.66;;;10.61;69.70
74613;BME280;63119;51.788;8.824;2022-11-23T10:29:47;98562.06;;;10.78;67.63
74613;BME280;63119;51.788;8.824;2022-11-23T10:35:03;98553.16;;;10.69;67.69
74613;BME280;63119;51.788;8.824;2022-11-23T10:37:31;98554.47;;;10.16;69.83
74613;BME280;63119;51.788;8.824;2022-11-23T10:39:56;98553.88;;;10.03;69.14
74613;BME280;63119;51.788;8.824;2022-11-23T10:42:32;98542.28;;;10.43;67.63
74613;BME280;63119;51.788;8.824;2022-11-23T10:45:00;98550.22;;;10.63;66.92
74613;BME280;63119;51.788;8.824;2022-11-23T10:49:58;98542.69;;;10.87;66.00
74613;BME280;63119;51.788;8.824;2022-11-23T10:52:28;98546.56;;;11.12;65.54
74613;BME280;63119;51.788;8.824;2022-11-23T10:54:56;98547.72;;;10.80;66.94
74613;BME280;63119;51.788;8.824;2022-11-23T10:57:41;98541.69;;;10.97;65.51
74613;BME280;63119;51.788;8.824;2022-11-23T11:02:58;98531.94;;;10.98;66.24
74613;BME280;63119;51.788;8.824;2022-11-23T11:05:28;98532.63;;;11.10;65.81
74613;BME280;63119;51.788;8.824;2022-11-23T11:07:55;98531.72;;;11.38;64.95
74613;BME280;63119;51.788;8.824;2022-11-23T11:12:55;98524.25;;;11.24;63.79
74613;BME280;63119;51.788;8.824;2022-11-23T11:15:20;98520.16;;;11.29;63.77
74613;BME280;63119;51.788;8.824;2022-11-23T11:17:53;98512.66;;;11.25;62.84
74613;BME280;63119;51.788;8.824;2022-11-23T11:20:33;98517.06;;;11.34;61.83
74613;BME280;63119;51.788;8.824;2022-11-23T11:23:01;98519.34;;;11.29;61.89
74613;BME280;63119;51.788;8.824;2022-11-23T11:25:33;98519.63;;;11.63;61.19
74613;BME280;63119;51.788;8.824;2022-11-23T11:28:04;98515.97;;;11.36;60.88
74613;BME280;63119;51.788;8.824;2022-11-23T11:30:43;98523.41;;;11.23;60.93
74613;BME280;63119;51.788;8.824;2022-11-23T11:33:17;98518.19;;;11.41;61.35
74613;BME280;63119;51.788;8.824;2022-11-23T11:35:46;98516.41;;;11.32;62.43
74613;BME280;63119;51.788;8.824;2022-11-23T11:38:40;98514.69;;;11.77;61.10
74613;BME280;63119;51.788;8.824;2022-11-23T11:41:07;98519.63;;;11.72;60.95
74613;BME280;63119;51.788;8.824;2022-11-23T11:43:41;98519.25;;;11.58;60.52
74613;BME280;63119;51.788;8.824;2022-11-23T11:46:14;98516.47;;;11.49;61.59
74613;BME280;63119;51.788;8.824;2022-11-23T11:51:28;98520.59;;;11.62;62.07
74613;BME280;63119;51.788;8.824;2022-11-23T11:56:37;98515.56;;;11.68;62.25
74613;BME280;63119;51.788;8.824;2022-11-23T11:59:13;98526.34;;;11.57;61.92
74613;BME280;63119;51.788;8.824;2022-11-23T12:04:26;98525.41;;;11.85;61.55
74613;BME280;63119;51.788;8.824;2022-11-23T12:07:17;98515.28;;;11.34;62.59
74613;BME280;63119;51.788;8.824;2022-11-23T12:09:49;98519.22;;;11.67;62.03
74613;BME280;63119;51.788;8.824;2022-11-23T12:12:18;98522.47;;;12.51;59.34
74613;BME280;63119;51.788;8.824;2022-11-23T12:14:45;98513.75;;;13.87;55.46
74613;BME280;63119;51.788;8.824;2022-11-23T12:17:36;98542.38;;;13.93;53.64
74613;BME280;63119;51.788;8.824;2022-11-23T12:20:16;98551.34;;;12.72;56.53
74613;BME280;63119;51.788;8.824;2022-11-23T12:26:05;98533.06;;;13.55;54.29
74613;BME280;63119;51.788;8.824;2022-11-23T12:29:09;98556.56;;;14.10;53.24
74613;BME280;63119;51.788;8.824;2022-11-23T12:31:45;98511.81;;;12.86;55.75
74613;BME280;63119;51.788;8.824;2022-11-23T12:34:40;98518.78;;;12.87;55.65
74613;BME280;63119;51.788;8.824;2022-11-23T12:40:28;98502.31;;;13.19;55.86
74613;BME280;63119;51.788;8.824;2022-11-23T12:45:49;98503.19;;;11.22;60.91
74613;BME280;63119;51.788;8.824;2022-11-23T12:48:36;98498.81;;;10.94;61.95
74613;BME280;63119;51.788;8.824;2022-11-23T12:51:20;98485.53;;;11.04;62.91
74613;BME280;63119;51.788;8.824;2022-11-23T12:54:16;98485.63;;;10.65;62.66
74613;BME280;63119;51.788;8.824;2022-11-23T12:57:01;98477.38;;;10.87;62.52
74613;BME280;63119;51.788;8.824;2022-11-23T12:59:38;98486.88;;;10.61;63.32
74613;BME280;63119;51.788;8.824;2022-11-23T13:02:13;98480.22;;;10.57;61.63
74613;BME280;63119;51.788;8.824;2022-11-23T13:09:59;98464.50;;;10.36;63.01
74613;BME280;63119;51.788;8.824;2022-11-23T13:15:39;98472.00;;;10.22;63.08
74613;BME280;63119;51.788;8.824;2022-11-23T13:23:38;98475.75;;;10.29;62.32
74613;BME280;63119;51.788;8.824;2022-11-23T13:26:16;98473.38;;;10.16;62.82
74613;BME280;63119;51.788;8.824;2022-11-23T13:28:44;98474.91;;;10.28;61.20
74613;BME280;63119;51.788;8.824;2022-11-23T13:33:42;98473.06;;;10.10;63.34
74613;BME280;63119;51.788;8.824;2022-11-23T13:36:32;98488.34;;;10.06;63.72
74613;BME280;63119;51.788;8.824;2022-11-23T13:38:59;98487.00;;;10.12;63.28
74613;BME280;63119;51.788;8.824;2022-11-23T13:47:02;98478.34;;;9.91;64.77
74613;BME280;63119;51.788;8.824;2022-11-23T13:49:29;98481.09;;;9.89;64.33
74613;BME280;63119;51.788;8.824;2022-11-23T13:57:40;98469.59;;;10.00;65.38
74613;BME280;63119;51.788;8.824;2022-11-23T14:09:18;98486.97;;;9.93;66.33
74613;BME280;63119;51.788;8.824;2022-11-23T14:20:15;98485.94;;;9.74;66.64
74613;BME280;63119;51.788;8.824;2022-11-23T14:25:50;98477.06;;;9.75;66.14
74613;BME280;63119;51.788;8.824;2022-11-23T14:33:53;98481.31;;;9.67;65.35
74613;BME280;63119;51.788;8.824;2022-11-23T14:36:42;98479.09;;;9.62;65.37
74613;BME280;63119;51.788;8.824;2022-11-23T14:39:42;98488.97;;;9.60;66.39
74613;BME280;63119;51.788;8.824;2022-11-23T14:42:13;98481.56;;;9.45;66.71
74613;BME280;63119;51.788;8.824;2022-11-23T14:44:41;98479.25;;;9.30;67.50
74613;BME280;63119;51.788;8.824;2022-11-23T14:47:08;98478.56;;;9.28;67.32
74613;BME280;63119;51.788;8.824;2022-11-23T14:49:34;98480.25;;;9.29;67.36
74613;BME280;63119;51.788;8.824;2022-11-23T14:52:02;98470.59;;;9.19;67.43
74613;BME280;63119;51.788;8.824;2022-11-23T14:54:28;98474.25;;;9.18;68.24
74613;BME280;63119;51.788;8.824;2022-11-23T14:56:59;98474.50;;;9.15;68.23
74613;BME280;63119;51.788;8.824;2022-11-23T14:59:29;98468.81;;;9.19;68.18
74613;BME280;63119;51.788;8.824;2022-11-23T15:01:59;98475.09;;;8.98;68.93
74613;BME280;63119;51.788;8.824;2022-11-23T15:04:35;98471.88;;;8.94;68.76
74613;BME280;63119;51.788;8.824;2022-11-23T15:07:21;98466.34;;;8.97;68.83
74613;BME280;63119;51.788;8.824;2022-11-23T15:10:04;98451.63;;;8.74;68.90
74613;BME280;63119;51.788;8.824;2022-11-23T15:12:46;98455.97;;;8.75;68.80
74613;BME280;63119;51.788;8.824;2022-11-23T15:18:00;98453.69;;;8.70;69.38
74613;BME280;63119;51.788;8.824;2022-11-23T15:20:29;98464.13;;;8.72;68.88
74613;BME280;63119;51.788;8.824;2022-11-23T15:22:56;98455.38;;;8.71;68.37
74613;BME280;63119;51.788;8.824;2022-11-23T15:25:22;98451.41;;;8.56;68.84
74613;BME280;63119;51.788;8.824;2022-11-23T15:27:48;98461.34;;;8.53;69.19
74613;BME280;63119;51.788;8.824;2022-11-23T15:32:43;98461.09;;;8.35;69.79
74613;BME280;63119;51.788;8.824;2022-11-23T15:35:13;98447.66;;;8.27;70.14
74613;BME280;63119;51.788;8.824;2022-11-23T15:37:44;98459.31;;;8.24;69.49
74613;BME280;63119;51.788;8.824;2022-11-23T15:40:13;98466.75;;;8.19;70.01
74613;BME280;63119;51.788;8.824;2022-11-23T15:42:39;98468.31;;;8.22;69.79
74613;BME280;63119;51.788;8.824;2022-11-23T15:45:05;98478.72;;;8.23;69.61
74613;BME280;63119;51.788;8.824;2022-11-23T15:47:50;98477.56;;;8.16;70.12
74613;BME280;63119;51.788;8.824;2022-11-23T15:50:16;98466.88;;;8.18;69.99
74613;BME280;63119;51.788;8.824;2022-11-23T15:52:41;98469.25;;;8.21;69.72
74613;BME280;63119;51.788;8.824;2022-11-23T15:55:12;98474.38;;;8.02;70.07
74613;BME280;63119;51.788;8.824;2022-11-23T15:57:48;98471.84;;;8.00;70.38
74613;BME280;63119;51.788;8.824;2022-11-23T16:00:24;98490.78;;;7.94;70.38
74613;BME280;63119;51.788;8.824;2022-11-23T16:02:50;98491.75;;;7.93;70.52
74613;BME280;63119;51.788;8.824;2022-11-23T16:05:17;98501.22;;;7.96;70.41
74613;BME280;63119;51.788;8.824;2022-11-23T16:07:55;98504.53;;;7.98;70.41
74613;BME280;63119;51.788;8.824;2022-11-23T16:10:25;98505.03;;;7.92;70.37
74613;BME280;63119;51.788;8.824;2022-11-23T16:15:37;98496.94;;;7.84;70.72
74613;BME280;63119;51.788;8.824;2022-11-23T16:20:42;98503.53;;;7.78;70.94
74613;BME280;63119;51.788;8.824;2022-11-23T16:23:15;98498.03;;;7.70;71.33
74613;BME280;63119;51.788;8.824;2022-11-23T16:25:42;98495.88;;;7.64;71.28
74613;BME280;63119;51.788;8.824;2022-11-23T16:28:25;98503.41;;;7.57;71.71
74613;BME280;63119;51.788;8.824;2022-11-23T16:30:51;98500.31;;;7.52;72.11
74613;BME280;63119;51.788;8.824;2022-11-23T16:33:18;98502.00;;;7.53;71.91
74613;BME280;63119;51.788;8.824;2022-11-23T16:35:45;98508.94;;;7.43;71.91
74613;BME280;63119;51.788;8.824;2022-11-23T16:38:10;98515.88;;;7.33;72.59
74613;BME280;63119;51.788;8.824;2022-11-23T16:40:39;98521.03;;;7.35;72.27
74613;BME280;63119;51.788;8.824;2022-11-23T16:43:06;98521.13;;;7.33;72.13
74613;BME280;63119;51.788;8.824;2022-11-23T16:45:31;98535.97;;;7.34;72.21
74613;BME280;63119;51.788;8.824;2022-11-23T16:47:58;98541.47;;;7.31;72.51
74613;BME280;63119;51.788;8.824;2022-11-23T16:50:35;98545.19;;;7.29;72.42
74613;BME280;63119;51.788;8.824;2022-11-23T16:53:14;98544.25;;;7.41;71.80
74613;BME280;63119;51.788;8.824;2022-11-23T16:55:39;98540.63;;;7.42;71.60
74613;BME280;63119;51.788;8.824;2022-11-23T16:58:05;98538.84;;;7.31;72.03
74613;BME280;63119;51.788;8.824;2022-11-23T17:00:34;98544.81;;;7.33;71.87
74613;BME280;63119;51.788;8.824;2022-11-23T17:03:00;98542.44;;;7.19;72.12